createdAt,value
2017-12-10T00:00:49.028Z,-1.80
2017-12-10T00:03:16.541Z,-1.90
2017-12-10T00:05:44.797Z,-1.80
2017-12-10T00:08:12.304Z,-1.80
2017-12-10T00:10:39.792Z,-1.60
2017-12-10T00:13:07.300Z,-1.80
2017-12-10T00:15:35.556Z,-1.90
2017-12-10T00:18:03.065Z,-1.80
2017-12-10T00:20:30.553Z,-1.70
2017-12-10T00:22:58.065Z,-1.70
2017-12-10T00:25:25.557Z,-1.90
2017-12-10T00:27:53.081Z,-1.80
2017-12-10T00:30:20.572Z,-1.80
2017-12-10T00:32:48.085Z,-1.90
2017-12-10T00:35:15.588Z,-1.80
2017-12-10T00:37:43.093Z,-1.80
2017-12-10T00:40:11.354Z,-1.70
2017-12-10T00:42:38.856Z,-1.90
2017-12-10T00:45:06.348Z,-1.90
2017-12-10T00:47:33.876Z,-1.90
2017-12-10T00:50:01.369Z,-1.90
2017-12-10T00:52:28.880Z,-2.00
2017-12-10T00:54:57.137Z,-2.20
2017-12-10T00:57:24.653Z,-2.30
2017-12-10T00:59:52.152Z,-2.00
2017-12-10T01:02:19.660Z,-2.00
2017-12-10T01:04:47.148Z,-2.10
2017-12-10T01:07:14.640Z,-2.20
2017-12-10T01:09:42.939Z,-2.20
2017-12-10T01:12:10.443Z,-2.30
2017-12-10T01:14:37.960Z,-2.30
2017-12-10T01:17:05.462Z,-2.30
2017-12-10T01:19:32.971Z,-2.40
2017-12-10T01:22:01.232Z,-2.30
2017-12-10T01:24:29.520Z,-2.30
2017-12-10T01:26:57.772Z,-2.20
2017-12-10T01:29:25.281Z,-2.30
2017-12-10T01:31:52.773Z,-2.20
2017-12-10T01:34:20.279Z,-2.10
2017-12-10T01:36:48.535Z,-2.20
2017-12-10T01:39:16.044Z,-2.30
2017-12-10T01:41:43.551Z,-2.20
2017-12-10T01:44:11.065Z,-2.20
2017-12-10T01:46:38.561Z,-2.20
2017-12-10T01:49:06.092Z,-2.10
2017-12-10T01:51:33.585Z,-2.10
2017-12-10T01:54:01.096Z,-2.10
2017-12-10T01:56:28.588Z,-2.10
2017-12-10T01:58:56.096Z,-2.20
2017-12-10T02:01:23.596Z,-2.10
2017-12-10T02:03:51.114Z,-2.10
2017-12-10T02:06:18.600Z,-2.10
2017-12-10T02:08:46.106Z,-2.20
2017-12-10T02:11:13.583Z,-2.20
2017-12-10T02:13:41.894Z,-2.20
2017-12-10T02:16:09.380Z,-2.30
2017-12-10T02:18:36.902Z,-2.10
2017-12-10T02:21:04.400Z,-2.20
2017-12-10T02:23:31.917Z,-2.20
2017-12-10T02:25:59.404Z,-2.20
2017-12-10T02:28:26.909Z,-2.20
2017-12-10T02:30:55.165Z,-2.20
2017-12-10T02:33:22.688Z,-2.40
2017-12-10T02:35:50.179Z,-2.30
2017-12-10T02:38:17.702Z,-2.30
2017-12-10T02:40:45.192Z,-2.20
2017-12-10T02:43:12.705Z,-2.20
2017-12-10T02:45:40.193Z,-2.10
2017-12-10T02:48:08.097Z,-2.00
2017-12-10T02:50:36.375Z,-2.10
2017-12-10T02:53:03.889Z,-2.20
2017-12-10T02:55:32.127Z,-2.20
2017-12-10T02:58:00.398Z,-2.20
2017-12-10T03:00:28.661Z,-2.20
2017-12-10T03:02:56.181Z,-2.40
2017-12-10T03:05:23.673Z,-2.20
2017-12-10T03:07:51.188Z,-2.20
2017-12-10T03:10:18.676Z,-2.40
2017-12-10T03:12:46.184Z,-2.40
2017-12-10T03:15:14.717Z,-2.30
2017-12-10T03:17:42.229Z,-2.40
2017-12-10T03:20:09.724Z,-2.40
2017-12-10T03:22:37.237Z,-2.40
2017-12-10T03:25:05.489Z,-2.60
2017-12-10T03:27:33.000Z,-2.70
2017-12-10T03:30:00.488Z,-2.60
2017-12-10T03:32:28.012Z,-2.50
2017-12-10T03:34:55.515Z,-2.30
2017-12-10T03:37:23.024Z,-2.30
2017-12-10T03:39:50.517Z,-2.30
2017-12-10T03:42:18.024Z,-2.30
2017-12-10T03:44:46.284Z,-2.10
2017-12-10T03:47:14.578Z,-2.00
2017-12-10T03:49:42.841Z,-2.00
2017-12-10T03:52:10.356Z,-2.10
2017-12-10T03:54:37.848Z,-2.10
2017-12-10T03:57:05.372Z,-2.00
2017-12-10T03:59:32.861Z,-1.90
2017-12-10T04:02:00.371Z,-2.00
2017-12-10T04:04:27.869Z,-1.90
2017-12-10T04:06:55.389Z,-1.90
2017-12-10T04:09:22.876Z,-1.90
2017-12-10T04:11:50.392Z,-1.80
2017-12-10T04:14:18.651Z,-1.80
2017-12-10T04:16:46.167Z,-1.90
2017-12-10T04:19:13.663Z,-1.90
2017-12-10T04:21:41.164Z,-1.90
2017-12-10T04:24:08.653Z,-1.90
2017-12-10T04:26:36.932Z,-2.00
2017-12-10T04:29:04.423Z,-2.10
2017-12-10T04:31:31.932Z,-1.90
2017-12-10T04:33:59.425Z,-1.90
2017-12-10T04:36:26.935Z,-1.70
2017-12-10T04:38:54.427Z,-1.70
2017-12-10T04:41:21.941Z,-1.70
2017-12-10T04:43:50.192Z,-1.80
2017-12-10T04:46:17.704Z,-1.90
2017-12-10T04:48:45.200Z,-1.80
2017-12-10T04:51:12.712Z,-1.70
2017-12-10T04:53:40.204Z,-1.60
2017-12-10T04:56:07.716Z,-1.70
2017-12-10T04:58:35.972Z,-1.80
2017-12-10T05:01:03.488Z,-1.90
2017-12-10T05:03:30.979Z,-1.70
2017-12-10T05:05:58.484Z,-1.80
2017-12-10T05:08:25.972Z,-1.70
2017-12-10T05:10:53.488Z,-1.60
2017-12-10T05:13:21.748Z,-1.70
2017-12-10T05:15:49.248Z,-1.80
2017-12-10T05:18:16.739Z,-1.60
2017-12-10T05:20:44.244Z,-1.50
2017-12-10T05:23:12.491Z,-1.60
2017-12-10T05:25:40.005Z,-1.60
2017-12-10T05:28:07.492Z,-1.50
2017-12-10T05:30:34.994Z,-1.50
2017-12-10T05:33:03.264Z,-1.50
2017-12-10T05:35:31.541Z,-1.40
2017-12-10T05:37:59.797Z,-1.50
2017-12-10T05:40:27.307Z,-1.60
2017-12-10T05:42:54.796Z,-1.40
2017-12-10T05:45:22.313Z,-1.50
2017-12-10T05:47:50.577Z,-1.60
2017-12-10T05:50:18.865Z,-1.60
2017-12-10T05:52:47.138Z,-1.50
2017-12-10T05:55:15.452Z,-1.40
2017-12-10T05:57:42.925Z,-1.50
2017-12-10T06:00:10.433Z,-1.40
2017-12-10T06:02:37.944Z,-1.40
2017-12-10T06:05:05.469Z,-1.40
2017-12-10T06:07:32.994Z,-1.30
2017-12-10T06:10:00.520Z,-1.30
2017-12-10T06:12:28.074Z,-1.30
2017-12-10T06:14:56.323Z,-1.40
2017-12-10T06:17:23.826Z,-1.40
2017-12-10T06:19:51.358Z,-1.40
2017-12-10T06:22:18.870Z,-1.30
2017-12-10T06:24:46.394Z,-1.40
2017-12-10T06:27:13.889Z,-1.40
2017-12-10T06:29:41.412Z,-1.40
2017-12-10T06:32:08.907Z,-1.30
2017-12-10T06:34:36.405Z,-1.30
2017-12-10T06:37:03.926Z,-1.40
2017-12-10T06:39:31.427Z,-1.30
2017-12-10T06:41:58.946Z,-1.40
2017-12-10T06:44:26.441Z,-1.30
2017-12-10T06:46:53.957Z,-1.20
2017-12-10T06:49:21.444Z,-1.20
2017-12-10T06:51:49.730Z,-1.30
2017-12-10T06:54:17.222Z,-1.30
2017-12-10T06:56:44.746Z,-1.30
2017-12-10T06:59:12.254Z,-1.40
2017-12-10T07:01:39.772Z,-1.50
2017-12-10T07:04:07.276Z,-1.40
2017-12-10T07:06:34.837Z,-1.50
2017-12-10T07:09:02.434Z,-1.50
2017-12-10T07:11:30.737Z,-1.60
2017-12-10T07:13:58.242Z,-1.70
2017-12-10T07:16:25.770Z,-1.60
2017-12-10T07:18:53.274Z,-1.60
2017-12-10T07:21:20.790Z,-1.70
2017-12-10T07:23:48.285Z,-1.60
2017-12-10T07:26:15.806Z,-1.70
2017-12-10T07:28:43.312Z,-1.60
2017-12-10T07:31:10.828Z,-1.60
2017-12-10T07:33:38.330Z,-1.70
2017-12-10T07:36:05.852Z,-1.60
2017-12-10T07:38:33.364Z,-1.60
2017-12-10T07:41:01.662Z,-1.50
2017-12-10T07:43:29.550Z,-1.60
2017-12-10T07:45:57.077Z,-1.50
2017-12-10T07:48:25.354Z,-1.30
2017-12-10T07:50:53.714Z,-1.20
2017-12-10T07:53:21.222Z,-1.30
2017-12-10T07:55:48.754Z,-1.30
2017-12-10T07:58:17.029Z,-1.20
2017-12-10T08:00:45.331Z,-1.30
2017-12-10T08:03:12.836Z,-1.40
2017-12-10T08:05:40.373Z,-1.30
2017-12-10T08:08:08.266Z,-1.40
2017-12-10T08:10:35.781Z,-1.30
2017-12-10T08:13:03.294Z,-1.20
2017-12-10T08:15:30.842Z,-1.10
2017-12-10T08:17:58.350Z,-1.20
2017-12-10T08:20:25.873Z,-1.30
2017-12-10T08:22:53.379Z,-1.30
2017-12-10T08:25:20.910Z,-1.40
2017-12-10T08:27:49.177Z,-1.30
2017-12-10T08:30:18.486Z,-1.30
2017-12-10T08:32:46.764Z,-1.10
2017-12-10T08:35:14.293Z,-1.20
2017-12-10T08:37:41.814Z,-1.10
2017-12-10T08:40:09.350Z,-1.10
2017-12-10T08:42:37.626Z,-1.00
2017-12-10T08:45:05.182Z,-1.10
2017-12-10T08:47:32.688Z,-0.90
2017-12-10T08:50:00.234Z,-0.70
2017-12-10T08:52:27.736Z,-0.80
2017-12-10T08:54:55.253Z,-0.80
2017-12-10T08:57:22.758Z,-0.70
2017-12-10T08:59:50.281Z,-0.80
2017-12-10T09:02:17.793Z,-0.90
2017-12-10T09:04:46.078Z,-0.60
2017-12-10T09:07:14.350Z,-0.60
2017-12-10T09:09:42.638Z,-0.60
2017-12-10T09:12:10.921Z,-0.70
2017-12-10T09:14:38.450Z,-0.80
2017-12-10T09:17:05.946Z,-0.70
2017-12-10T09:19:33.468Z,-0.60
2017-12-10T09:22:00.983Z,-0.60
2017-12-10T09:24:28.512Z,-0.70
2017-12-10T09:26:56.781Z,-0.50
2017-12-10T09:29:25.076Z,-0.60
2017-12-10T09:31:52.577Z,-0.70
2017-12-10T09:34:20.130Z,-0.60
2017-12-10T09:36:47.630Z,-0.50
2017-12-10T09:39:15.168Z,-0.60
2017-12-10T09:41:42.678Z,-0.90
2017-12-10T09:44:10.215Z,-0.90
2017-12-10T09:46:38.481Z,-1.40
2017-12-10T09:49:06.009Z,-1.40
2017-12-10T09:51:33.513Z,-1.50
2017-12-10T09:54:01.799Z,-1.60
2017-12-10T09:56:30.060Z,-1.60
2017-12-10T09:58:57.585Z,-1.70
2017-12-10T10:01:25.098Z,-1.60
2017-12-10T10:03:53.389Z,-1.90
2017-12-10T10:06:20.894Z,-2.00
2017-12-10T10:08:48.431Z,-2.00
2017-12-10T10:11:15.934Z,-1.90
2017-12-10T10:13:43.457Z,-1.90
2017-12-10T10:16:12.905Z,-1.90
2017-12-10T10:18:42.650Z,-1.90
2017-12-10T10:21:10.147Z,-2.00
2017-12-10T10:23:37.692Z,-2.00
2017-12-10T10:26:05.245Z,-1.90
2017-12-10T10:28:33.492Z,-1.80
2017-12-10T10:31:00.994Z,-2.00
2017-12-10T10:33:28.518Z,-1.90
2017-12-10T10:35:56.027Z,-2.00
2017-12-10T10:38:23.550Z,-1.90
2017-12-10T10:40:51.870Z,-2.00
2017-12-10T10:43:19.390Z,-2.10
2017-12-10T10:45:47.599Z,-2.00
2017-12-10T10:48:15.125Z,-2.00
2017-12-10T10:50:42.647Z,-2.10
2017-12-10T10:53:10.915Z,-1.90
2017-12-10T10:55:39.216Z,-2.10
2017-12-10T10:58:06.730Z,-2.20
2017-12-10T11:00:34.261Z,-2.20
2017-12-10T11:03:01.765Z,-2.00
2017-12-10T11:05:29.564Z,-2.00
2017-12-10T11:07:57.062Z,-2.00
2017-12-10T11:10:24.590Z,-2.00
2017-12-10T11:12:52.087Z,-1.90
2017-12-10T11:15:19.606Z,-1.90
2017-12-10T11:17:48.075Z,-1.90
2017-12-10T11:20:16.375Z,-1.80
2017-12-10T11:22:44.196Z,-1.90
2017-12-10T11:25:13.245Z,-1.50
2017-12-10T11:27:40.745Z,-1.60
2017-12-10T11:30:08.279Z,-1.40
2017-12-10T11:32:35.804Z,-1.40
2017-12-10T11:35:03.327Z,-1.50
2017-12-10T11:37:30.828Z,-1.60
2017-12-10T11:39:58.368Z,-1.40
2017-12-10T11:42:27.310Z,-1.30
2017-12-10T11:44:55.029Z,-1.40
2017-12-10T11:47:23.390Z,-1.30
2017-12-10T11:49:50.909Z,-1.40
2017-12-10T11:52:18.422Z,-1.20
2017-12-10T11:54:46.706Z,-1.40
2017-12-10T11:57:14.976Z,-1.20
2017-12-10T11:59:42.511Z,-1.30
2017-12-10T12:02:10.032Z,-1.10
2017-12-10T12:04:37.557Z,-1.00
2017-12-10T12:07:05.830Z,-1.20
2017-12-10T12:09:34.144Z,-1.10
2017-12-10T12:12:02.602Z,-1.20
2017-12-10T12:14:30.106Z,-0.90
2017-12-10T12:16:57.605Z,-0.80
2017-12-10T12:19:25.898Z,-0.60
2017-12-10T12:21:54.529Z,-0.50
2017-12-10T12:24:22.066Z,-0.50
2017-12-10T12:26:49.564Z,-0.40
2017-12-10T12:29:17.091Z,-0.40
2017-12-10T12:31:44.595Z,-0.30
2017-12-10T12:34:12.121Z,-0.30
2017-12-10T12:36:39.625Z,-0.30
2017-12-10T12:39:07.915Z,0.00
2017-12-10T12:41:36.237Z,0.00
2017-12-10T12:44:03.743Z,-0.10
2017-12-10T12:46:32.010Z,0.20
2017-12-10T12:48:59.618Z,0.10
2017-12-10T12:51:27.118Z,0.20
2017-12-10T12:53:54.642Z,0.30
2017-12-10T12:56:22.141Z,0.30
2017-12-10T12:58:49.670Z,0.20
2017-12-10T13:01:17.169Z,0.20
2017-12-10T13:03:44.693Z,0.20
2017-12-10T13:06:12.203Z,0.40
2017-12-10T13:08:40.492Z,0.40
2017-12-10T13:11:08.773Z,0.40
2017-12-10T13:13:36.293Z,0.30
2017-12-10T13:16:03.791Z,0.40
2017-12-10T13:18:31.311Z,0.50
2017-12-10T13:20:58.815Z,0.50
2017-12-10T13:23:26.337Z,0.50
2017-12-10T13:25:53.846Z,0.50
2017-12-10T13:28:21.366Z,0.50
2017-12-10T13:30:48.862Z,0.60
2017-12-10T13:33:16.378Z,0.70
2017-12-10T13:35:43.877Z,0.70
2017-12-10T13:38:14.340Z,0.80
2017-12-10T13:40:41.805Z,0.90
2017-12-10T13:43:09.306Z,0.90
2017-12-10T13:45:37.589Z,0.80
2017-12-10T13:48:05.859Z,0.90
2017-12-10T13:50:34.146Z,1.10
2017-12-10T13:53:01.646Z,1.00
2017-12-10T13:55:29.162Z,1.10
2017-12-10T13:57:56.670Z,1.20
2017-12-10T14:00:25.083Z,1.30
2017-12-10T14:02:53.358Z,1.30
2017-12-10T14:05:21.647Z,1.30
2017-12-10T14:07:49.912Z,1.30
2017-12-10T14:10:17.445Z,1.20
2017-12-10T14:12:44.986Z,1.30
2017-12-10T14:15:12.626Z,1.40
2017-12-10T14:17:40.130Z,1.50
2017-12-10T14:20:07.678Z,1.50
2017-12-10T14:22:35.191Z,1.50
2017-12-10T14:25:03.640Z,1.60
2017-12-10T14:27:31.177Z,1.50
2017-12-10T14:29:58.697Z,1.50
2017-12-10T14:32:26.962Z,1.50
2017-12-10T14:34:55.251Z,1.50
2017-12-10T14:37:23.511Z,1.50
2017-12-10T14:39:51.798Z,1.60
2017-12-10T14:42:20.390Z,1.70
2017-12-10T14:44:47.918Z,1.60
2017-12-10T14:47:15.412Z,1.60
2017-12-10T14:49:42.932Z,1.80
2017-12-10T14:52:10.422Z,1.70
2017-12-10T14:54:38.699Z,1.70
2017-12-10T14:57:06.957Z,1.70
2017-12-10T14:59:35.407Z,1.60
2017-12-10T15:02:02.937Z,1.70
2017-12-10T15:04:31.912Z,1.80
2017-12-10T15:07:00.234Z,1.90
2017-12-10T15:09:27.713Z,1.80
2017-12-10T15:11:55.214Z,1.80
2017-12-10T15:14:22.739Z,1.80
2017-12-10T15:16:50.246Z,1.80
2017-12-10T15:19:17.772Z,1.80
2017-12-10T15:21:46.037Z,1.90
2017-12-10T15:24:13.570Z,1.80
2017-12-10T15:26:41.066Z,1.90
2017-12-10T15:29:08.582Z,1.90
2017-12-10T15:31:36.088Z,1.90
2017-12-10T15:34:04.429Z,2.00
2017-12-10T15:36:31.929Z,1.80
2017-12-10T15:39:00.216Z,2.00
2017-12-10T15:41:28.474Z,2.00
2017-12-10T15:43:56.006Z,2.00
2017-12-10T15:46:23.508Z,2.00
2017-12-10T15:48:51.801Z,2.10
2017-12-10T15:51:19.360Z,2.10
2017-12-10T15:53:46.886Z,2.10
2017-12-10T15:56:14.382Z,2.20
2017-12-10T15:58:41.906Z,2.20
2017-12-10T16:01:09.407Z,2.10
2017-12-10T16:03:36.922Z,2.20
2017-12-10T16:06:04.424Z,2.20
2017-12-10T16:08:31.965Z,2.30
2017-12-10T16:11:00.237Z,2.40
2017-12-10T16:13:28.531Z,2.50
2017-12-10T16:15:56.062Z,2.40
2017-12-10T16:18:23.579Z,2.50
2017-12-10T16:20:51.082Z,2.50
2017-12-10T16:23:18.601Z,2.40
2017-12-10T16:25:46.097Z,2.40
2017-12-10T16:28:13.683Z,2.40
2017-12-10T16:30:41.191Z,2.50
2017-12-10T16:33:08.719Z,2.50
2017-12-10T16:35:36.215Z,2.40
2017-12-10T16:38:03.787Z,2.50
2017-12-10T16:40:31.289Z,2.60
2017-12-10T16:42:58.814Z,2.60
2017-12-10T16:45:26.326Z,2.60
2017-12-10T16:47:53.939Z,2.50
2017-12-10T16:50:21.444Z,2.60
2017-12-10T16:52:48.970Z,2.50
2017-12-10T16:55:16.474Z,2.60
2017-12-10T16:57:44.004Z,2.60
2017-12-10T17:00:12.342Z,2.70
2017-12-10T17:02:39.853Z,2.60
2017-12-10T17:05:07.358Z,2.80
2017-12-10T17:07:34.882Z,2.80
2017-12-10T17:10:02.389Z,2.90
2017-12-10T17:12:29.906Z,2.90
2017-12-10T17:14:57.414Z,2.90
2017-12-10T17:17:24.927Z,3.00
2017-12-10T17:19:52.434Z,3.00
2017-12-10T17:22:19.950Z,3.20
2017-12-10T17:24:47.453Z,3.20
2017-12-10T17:27:14.967Z,3.20
2017-12-10T17:29:42.462Z,3.20
2017-12-10T17:32:09.978Z,3.20
2017-12-10T17:34:37.477Z,3.20
2017-12-10T17:37:05.004Z,3.20
2017-12-10T17:39:32.506Z,3.20
2017-12-10T17:42:00.030Z,3.20
2017-12-10T17:44:27.526Z,3.20
2017-12-10T17:46:55.042Z,3.20
2017-12-10T17:49:22.548Z,3.20
2017-12-10T17:51:50.076Z,3.10
2017-12-10T17:54:17.572Z,3.20
2017-12-10T17:56:45.318Z,3.20
2017-12-10T17:59:12.829Z,3.20
2017-12-10T18:01:40.365Z,3.20
2017-12-10T18:04:08.630Z,3.30
2017-12-10T18:06:36.132Z,3.20
2017-12-10T18:09:03.671Z,3.30
2017-12-10T18:11:31.968Z,3.30
2017-12-10T18:13:59.488Z,3.20
2017-12-10T18:16:26.978Z,3.30
2017-12-10T18:18:54.519Z,3.30
2017-12-10T18:21:22.790Z,3.20
2017-12-10T18:23:51.081Z,3.30
2017-12-10T18:26:18.587Z,3.20
2017-12-10T18:28:46.118Z,3.30
2017-12-10T18:31:13.627Z,3.30
2017-12-10T18:33:41.143Z,3.30
2017-12-10T18:36:08.644Z,3.40
2017-12-10T18:38:36.163Z,3.40
2017-12-10T18:41:03.657Z,3.40
2017-12-10T18:43:31.185Z,3.30
2017-12-10T18:45:58.702Z,3.40
2017-12-10T18:48:26.229Z,3.40
2017-12-10T18:50:53.722Z,3.40
2017-12-10T18:53:22.011Z,3.40
2017-12-10T18:55:50.282Z,3.50
2017-12-10T18:58:18.569Z,3.50
2017-12-10T19:00:47.086Z,3.50
2017-12-10T19:03:14.606Z,3.40
2017-12-10T19:05:42.863Z,3.50
2017-12-10T19:08:11.211Z,3.50
2017-12-10T19:10:40.038Z,3.40
2017-12-10T19:13:08.346Z,3.50
2017-12-10T19:15:35.846Z,3.40
2017-12-10T19:18:03.351Z,3.50
2017-12-10T19:20:31.681Z,3.50
2017-12-10T19:22:59.199Z,3.40
2017-12-10T19:25:26.718Z,3.50
2017-12-10T19:27:54.215Z,3.50
2017-12-10T19:30:22.509Z,3.50
2017-12-10T19:32:50.026Z,3.50
2017-12-10T19:35:17.528Z,3.50
2017-12-10T19:37:45.056Z,3.50
2017-12-10T19:40:12.570Z,3.50
2017-12-10T19:42:40.093Z,3.50
2017-12-10T19:45:07.602Z,3.50
2017-12-10T19:47:35.132Z,3.50
2017-12-10T19:50:02.629Z,3.40
2017-12-10T19:52:30.145Z,3.50
2017-12-10T19:54:57.680Z,3.40
2017-12-10T19:57:25.951Z,3.40
2017-12-10T19:59:54.252Z,3.50
2017-12-10T20:02:21.762Z,3.40
2017-12-10T20:04:49.283Z,3.50
2017-12-10T20:07:17.572Z,3.50
2017-12-10T20:09:45.120Z,3.40
2017-12-10T20:12:12.631Z,3.50
2017-12-10T20:14:40.930Z,3.50
2017-12-10T20:17:09.210Z,3.40
2017-12-10T20:19:36.740Z,3.30
2017-12-10T20:22:05.082Z,3.40
2017-12-10T20:24:32.612Z,3.30
2017-12-10T20:27:00.171Z,3.50
2017-12-10T20:29:27.678Z,3.40
2017-12-10T20:31:55.197Z,3.40
2017-12-10T20:34:22.711Z,3.40
2017-12-10T20:36:50.249Z,3.40
2017-12-10T20:39:17.757Z,3.30
2017-12-10T20:41:46.052Z,3.40
2017-12-10T20:44:13.546Z,3.30
2017-12-10T20:46:41.065Z,3.40
2017-12-10T20:49:09.345Z,3.30
2017-12-10T20:51:36.878Z,3.30
2017-12-10T20:54:04.394Z,3.40
2017-12-10T20:56:31.911Z,3.40
2017-12-10T20:59:00.262Z,3.30
2017-12-10T21:01:27.933Z,3.30
2017-12-10T21:03:55.430Z,3.30
2017-12-10T21:06:22.966Z,3.40
2017-12-10T21:08:51.246Z,3.40
2017-12-10T21:11:19.538Z,3.40
2017-12-10T21:13:47.801Z,3.40
2017-12-10T21:16:16.102Z,3.30
2017-12-10T21:18:43.839Z,3.20
2017-12-10T21:21:11.372Z,3.30
2017-12-10T21:23:38.881Z,3.20
2017-12-10T21:26:06.397Z,3.20
2017-12-10T21:28:33.902Z,3.20
2017-12-10T21:31:01.466Z,3.30
2017-12-10T21:33:28.971Z,3.30
2017-12-10T21:35:56.513Z,3.20
2017-12-10T21:38:24.017Z,3.10
2017-12-10T21:40:52.303Z,3.20
2017-12-10T21:43:19.814Z,3.10
2017-12-10T21:45:47.339Z,3.30
2017-12-10T21:48:14.857Z,3.20
2017-12-10T21:50:42.361Z,3.20
2017-12-10T21:53:09.862Z,3.30
2017-12-10T21:55:37.377Z,3.20
2017-12-10T21:58:04.875Z,3.20
2017-12-10T22:00:32.397Z,3.30
2017-12-10T22:02:59.895Z,3.30
2017-12-10T22:05:27.415Z,3.40
2017-12-10T22:07:54.913Z,3.40
2017-12-10T22:10:22.438Z,3.40
2017-12-10T22:12:49.945Z,3.30
2017-12-10T22:15:17.457Z,3.30
2017-12-10T22:17:44.957Z,3.40
2017-12-10T22:20:13.403Z,3.40
2017-12-10T22:22:40.898Z,3.40
2017-12-10T22:25:08.420Z,3.50
2017-12-10T22:27:35.931Z,3.50
2017-12-10T22:30:03.442Z,3.50
2017-12-10T22:32:30.936Z,3.50
2017-12-10T22:34:58.457Z,3.60
2017-12-10T22:37:25.963Z,3.60
2017-12-10T22:39:53.488Z,3.50
2017-12-10T22:42:20.991Z,3.50
2017-12-10T22:44:48.506Z,3.50
2017-12-10T22:47:15.994Z,3.50
2017-12-10T22:49:43.505Z,3.50
2017-12-10T22:52:10.999Z,3.50
2017-12-10T22:54:38.518Z,3.50
2017-12-10T22:57:06.038Z,3.50
2017-12-10T22:59:33.534Z,3.50
2017-12-10T23:02:01.814Z,3.50
2017-12-10T23:04:29.342Z,3.30
2017-12-10T23:06:56.835Z,3.40
2017-12-10T23:09:24.339Z,3.30
2017-12-10T23:11:51.864Z,3.30
2017-12-10T23:14:19.374Z,3.30
2017-12-10T23:16:46.902Z,3.40
2017-12-10T23:19:14.394Z,3.40
2017-12-10T23:21:41.910Z,3.40
2017-12-10T23:24:09.414Z,3.40
2017-12-10T23:26:36.937Z,3.50
2017-12-10T23:29:04.450Z,3.50
2017-12-10T23:31:32.737Z,3.50
2017-12-10T23:34:01.005Z,3.40
2017-12-10T23:36:29.294Z,3.40
2017-12-10T23:38:57.568Z,3.30
2017-12-10T23:41:25.854Z,3.40
2017-12-10T23:43:54.113Z,3.30
2017-12-10T23:46:22.402Z,3.30
2017-12-10T23:48:50.666Z,3.30
2017-12-10T23:51:18.186Z,3.20
2017-12-10T23:53:45.687Z,3.40
2017-12-10T23:56:13.241Z,3.40
2017-12-10T23:58:41.533Z,3.40
